createdAt,value
2018-01-25T00:01:29.510Z,8.60
2018-01-25T00:04:39.796Z,8.60
2018-01-25T00:07:50.595Z,8.50
2018-01-25T00:11:00.615Z,8.50
2018-01-25T00:14:10.316Z,8.60
2018-01-25T00:17:20.899Z,8.60
2018-01-25T00:20:30.647Z,8.60
2018-01-25T00:23:40.516Z,8.60
2018-01-25T00:26:50.310Z,8.60
2018-01-25T00:30:00.614Z,8.60
2018-01-25T00:33:10.572Z,8.50
2018-01-25T00:36:21.158Z,8.50
2018-01-25T00:39:31.353Z,8.50
2018-01-25T00:42:41.274Z,8.50
2018-01-25T00:45:51.062Z,8.40
2018-01-25T00:49:00.903Z,8.40
2018-01-25T00:52:11.646Z,8.40
2018-01-25T00:55:21.766Z,8.40
2018-01-25T00:58:32.390Z,8.40
2018-01-25T01:01:42.113Z,8.40
2018-01-25T01:04:52.003Z,8.40
2018-01-25T01:08:01.812Z,8.30
2018-01-25T01:11:11.947Z,8.30
2018-01-25T01:14:22.022Z,8.30
2018-01-25T01:17:32.243Z,8.30
2018-01-25T01:20:42.542Z,8.30
2018-01-25T01:23:53.083Z,8.20
2018-01-25T01:27:03.060Z,8.20
2018-01-25T01:30:14.477Z,8.10
2018-01-25T01:33:25.041Z,8.20
2018-01-25T01:36:34.943Z,8.20
2018-01-25T01:39:44.471Z,8.10
2018-01-25T01:42:54.385Z,8.10
2018-01-25T01:46:05.039Z,8.10
2018-01-25T01:49:15.163Z,8.00
2018-01-25T01:52:24.904Z,8.10
2018-01-25T01:55:34.719Z,8.20
2018-01-25T01:58:44.434Z,8.20
2018-01-25T02:01:54.968Z,8.20
2018-01-25T02:05:05.622Z,8.20
2018-01-25T02:08:16.685Z,8.20
2018-01-25T02:11:26.761Z,8.20
2018-01-25T02:14:36.549Z,8.20
2018-01-25T02:17:46.193Z,8.20
2018-01-25T02:20:56.110Z,8.30
2018-01-25T02:24:06.173Z,8.30
2018-01-25T02:27:16.342Z,8.40
2018-01-25T02:30:26.379Z,8.30
2018-01-25T02:33:36.800Z,8.40
2018-01-25T02:36:46.558Z,8.30
2018-01-25T02:39:56.362Z,8.20
2018-01-25T02:43:07.075Z,8.20
2018-01-25T02:46:17.629Z,8.20
2018-01-25T02:49:27.612Z,8.20
2018-01-25T02:52:37.581Z,8.20
2018-01-25T02:55:48.340Z,8.30
2018-01-25T02:58:59.013Z,8.20
2018-01-25T03:02:09.830Z,8.20
2018-01-25T03:05:20.216Z,8.20
2018-01-25T03:08:30.952Z,8.20
2018-01-25T03:11:40.880Z,8.10
2018-01-25T03:14:50.654Z,8.10
2018-01-25T03:18:01.254Z,8.00
2018-01-25T03:21:11.251Z,8.00
2018-01-25T03:24:21.222Z,8.00
2018-01-25T03:27:44.809Z,8.10
2018-01-25T03:30:55.143Z,8.10
2018-01-25T03:34:05.864Z,8.00
2018-01-25T03:37:16.251Z,8.00
2018-01-25T03:40:26.222Z,8.00
2018-01-25T03:43:36.639Z,8.00
2018-01-25T03:46:46.858Z,8.00
2018-01-25T03:49:56.631Z,8.00
2018-01-25T03:53:07.138Z,8.00
2018-01-25T03:56:17.707Z,8.10
2018-01-25T03:59:28.267Z,8.00
2018-01-25T04:02:38.043Z,8.00
2018-01-25T04:05:47.896Z,8.10
2018-01-25T04:08:57.899Z,8.00
2018-01-25T04:12:07.656Z,8.00
2018-01-25T04:15:17.494Z,8.00
2018-01-25T04:18:27.329Z,8.00
2018-01-25T04:21:37.049Z,8.00
2018-01-25T04:24:47.076Z,8.10
2018-01-25T04:27:56.974Z,8.10
2018-01-25T04:31:06.826Z,8.10
2018-01-25T04:34:16.669Z,8.10
2018-01-25T04:37:27.320Z,8.00
2018-01-25T04:40:37.642Z,8.00
2018-01-25T04:43:47.533Z,8.10
2018-01-25T04:46:57.841Z,8.10
2018-01-25T04:50:08.151Z,8.10
2018-01-25T04:53:18.475Z,8.00
2018-01-25T04:56:28.693Z,8.10
2018-01-25T04:59:38.573Z,8.10
2018-01-25T05:02:48.569Z,8.00
2018-01-25T05:05:58.307Z,8.10
2018-01-25T05:09:08.998Z,8.10
2018-01-25T05:12:18.982Z,8.10
2018-01-25T05:15:28.822Z,8.10
2018-01-25T05:18:38.581Z,8.20
2018-01-25T05:21:48.323Z,8.20
2018-01-25T05:24:58.388Z,8.20
2018-01-25T05:28:09.074Z,8.20
2018-01-25T05:31:19.274Z,8.20
2018-01-25T05:34:29.152Z,8.20
2018-01-25T05:37:39.126Z,8.30
2018-01-25T05:40:49.214Z,8.30
2018-01-25T05:43:59.048Z,8.30
2018-01-25T05:47:08.892Z,8.40
2018-01-25T05:50:18.788Z,8.40
2018-01-25T05:53:28.570Z,8.40
2018-01-25T05:56:38.481Z,8.30
2018-01-25T05:59:48.779Z,8.40
2018-01-25T06:02:59.757Z,8.40
2018-01-25T06:06:11.010Z,8.50
2018-01-25T06:09:20.950Z,8.50
2018-01-25T06:12:31.083Z,8.50
2018-01-25T06:15:41.201Z,8.50
2018-01-25T06:18:51.194Z,8.50
2018-01-25T06:22:01.799Z,8.50
2018-01-25T06:25:11.574Z,8.50
2018-01-25T06:28:22.417Z,8.50
2018-01-25T06:31:32.771Z,8.50
2018-01-25T06:34:42.805Z,8.50
2018-01-25T06:37:53.541Z,8.50
2018-01-25T06:41:03.806Z,8.50
2018-01-25T06:44:13.696Z,8.60
2018-01-25T06:47:23.521Z,8.50
2018-01-25T06:50:33.573Z,8.50
2018-01-25T06:53:43.575Z,8.40
2018-01-25T06:56:53.494Z,8.40
2018-01-25T07:00:03.278Z,8.40
2018-01-25T07:03:14.190Z,8.40
2018-01-25T07:06:24.740Z,8.40
2018-01-25T07:09:34.706Z,8.40
2018-01-25T07:12:44.737Z,8.40
2018-01-25T07:15:54.782Z,8.40
2018-01-25T07:19:04.918Z,8.40
2018-01-25T07:22:14.835Z,8.50
2018-01-25T07:25:24.842Z,8.50
2018-01-25T07:28:35.440Z,8.50
2018-01-25T07:31:45.556Z,8.50
2018-01-25T07:34:55.538Z,8.50
2018-01-25T07:38:06.259Z,8.50
2018-01-25T07:41:16.391Z,8.50
2018-01-25T07:44:26.455Z,8.50
2018-01-25T07:47:36.683Z,8.50
2018-01-25T07:50:47.521Z,8.60
2018-01-25T07:53:57.746Z,8.50
2018-01-25T07:57:07.522Z,8.60
2018-01-25T08:00:17.601Z,8.60
2018-01-25T08:03:28.380Z,8.60
2018-01-25T08:06:38.368Z,8.60
2018-01-25T08:09:48.378Z,8.60
2018-01-25T08:12:58.143Z,8.60
2018-01-25T08:16:13.709Z,8.60
2018-01-25T08:19:24.084Z,8.70
2018-01-25T08:22:35.034Z,8.70
2018-01-25T08:25:45.779Z,8.70
2018-01-25T08:28:56.423Z,8.70
2018-01-25T08:32:07.534Z,8.80
2018-01-25T08:35:17.442Z,8.80
2018-01-25T08:38:27.213Z,8.80
2018-01-25T08:41:37.021Z,8.80
2018-01-25T08:44:46.949Z,8.80
2018-01-25T08:47:56.971Z,8.90
2018-01-25T08:51:07.045Z,8.90
2018-01-25T08:54:18.047Z,8.90
2018-01-25T08:57:28.210Z,8.90
2018-01-25T09:00:38.100Z,8.90
2018-01-25T09:03:48.003Z,9.00
2018-01-25T09:06:58.730Z,9.10
2018-01-25T09:10:08.758Z,9.00
2018-01-25T09:13:18.855Z,9.00
2018-01-25T09:16:28.769Z,9.00
2018-01-25T09:19:38.609Z,9.10
2018-01-25T09:22:48.057Z,9.10
2018-01-25T09:25:59.310Z,9.20
2018-01-25T09:29:09.746Z,9.20
2018-01-25T09:32:20.274Z,9.20
2018-01-25T09:35:30.431Z,9.30
2018-01-25T09:38:40.567Z,9.30
2018-01-25T09:41:50.810Z,9.30
2018-01-25T09:45:01.554Z,9.30
2018-01-25T09:48:11.403Z,9.30
2018-01-25T09:51:21.490Z,9.40
2018-01-25T09:54:31.916Z,9.40
2018-01-25T09:57:42.550Z,9.40
2018-01-25T10:00:52.266Z,9.40
2018-01-25T10:04:02.438Z,9.40
2018-01-25T10:07:12.438Z,9.50
2018-01-25T10:10:23.327Z,9.60
2018-01-25T10:13:33.542Z,9.50
2018-01-25T10:16:43.360Z,9.50
2018-01-25T10:19:53.178Z,9.70
2018-01-25T10:23:03.093Z,9.60
2018-01-25T10:26:12.882Z,9.70
2018-01-25T10:29:22.750Z,9.70
2018-01-25T10:32:32.675Z,9.70
2018-01-25T10:35:42.612Z,9.70
2018-01-25T10:38:52.715Z,9.60
2018-01-25T10:42:02.677Z,9.70
2018-01-25T10:45:12.846Z,9.70
2018-01-25T10:48:23.162Z,9.60
2018-01-25T10:51:33.903Z,9.70
2018-01-25T10:54:44.427Z,9.70
2018-01-25T10:57:55.034Z,9.70
2018-01-25T11:01:10.283Z,9.70
2018-01-25T11:04:20.138Z,9.70
2018-01-25T11:07:30.049Z,9.80
2018-01-25T11:10:40.168Z,9.80
2018-01-25T11:13:50.273Z,9.80
2018-01-25T11:17:00.146Z,9.80
2018-01-25T11:20:10.133Z,9.80
2018-01-25T11:23:20.107Z,9.90
2018-01-25T11:26:29.855Z,9.90
2018-01-25T11:29:39.766Z,9.90
2018-01-25T11:32:49.732Z,9.90
2018-01-25T11:35:59.875Z,9.90
2018-01-25T11:39:09.832Z,9.90
2018-01-25T11:42:19.647Z,9.90
2018-01-25T11:45:29.545Z,9.90
2018-01-25T11:48:39.410Z,9.90
2018-01-25T11:51:49.271Z,9.90
2018-01-25T11:54:59.466Z,9.90
2018-01-25T11:58:09.716Z,9.90
2018-01-25T12:01:20.354Z,10.00
2018-01-25T12:04:30.679Z,10.00
2018-01-25T12:07:41.209Z,10.00
2018-01-25T12:10:51.949Z,10.10
2018-01-25T12:14:02.191Z,10.10
2018-01-25T12:17:12.911Z,10.10
2018-01-25T12:20:23.549Z,10.10
2018-01-25T12:23:34.202Z,10.20
2018-01-25T12:26:44.273Z,10.20
2018-01-25T12:29:54.230Z,10.30
2018-01-25T12:33:04.193Z,10.40
2018-01-25T12:36:14.431Z,10.50
2018-01-25T12:39:24.283Z,10.50
2018-01-25T12:42:34.053Z,10.50
2018-01-25T12:45:44.849Z,10.60
2018-01-25T12:48:54.788Z,10.50
2018-01-25T12:52:04.232Z,10.60
2018-01-25T12:55:15.259Z,10.70
2018-01-25T12:58:25.676Z,10.60
2018-01-25T13:01:35.768Z,10.70
2018-01-25T13:04:45.861Z,10.80
2018-01-25T13:07:56.067Z,10.80
2018-01-25T13:11:06.115Z,10.80
2018-01-25T13:14:16.293Z,10.90
2018-01-25T13:17:26.667Z,10.80
2018-01-25T13:20:37.323Z,10.80
2018-01-25T13:23:47.199Z,10.70
2018-01-25T13:26:57.885Z,10.80
2018-01-25T13:30:08.493Z,10.70
2018-01-25T13:33:24.702Z,10.80
2018-01-25T13:36:34.630Z,10.70
2018-01-25T13:39:44.528Z,10.80
2018-01-25T13:42:54.475Z,10.70
2018-01-25T13:46:04.274Z,10.80
2018-01-25T13:49:14.173Z,10.80
2018-01-25T13:52:29.371Z,10.80
2018-01-25T13:55:40.621Z,10.70
2018-01-25T13:58:50.855Z,10.70
2018-01-25T14:02:00.849Z,10.70
2018-01-25T14:05:10.817Z,10.70
2018-01-25T14:08:22.289Z,10.70
2018-01-25T14:11:32.197Z,10.70
2018-01-25T14:14:42.205Z,10.70
2018-01-25T14:17:52.646Z,10.70
2018-01-25T14:21:03.028Z,10.70
2018-01-25T14:24:14.185Z,10.60
2018-01-25T14:27:24.822Z,10.60
2018-01-25T14:30:34.609Z,10.60
2018-01-25T14:33:44.458Z,10.50
2018-01-25T14:36:54.230Z,10.50
2018-01-25T14:40:04.524Z,10.40
2018-01-25T14:43:14.571Z,10.40
2018-01-25T14:46:25.170Z,10.30
2018-01-25T14:49:35.122Z,10.20
2018-01-25T14:52:45.186Z,10.20
2018-01-25T14:55:55.118Z,10.20
2018-01-25T14:59:05.251Z,10.10
2018-01-25T15:02:15.955Z,10.00
2018-01-25T15:05:26.174Z,10.00
2018-01-25T15:08:36.097Z,10.00
2018-01-25T15:11:46.242Z,9.90
2018-01-25T15:14:56.379Z,9.90
2018-01-25T15:18:06.290Z,9.90
2018-01-25T15:21:16.168Z,9.90
2018-01-25T15:24:26.164Z,9.80
2018-01-25T15:27:36.543Z,9.70
2018-01-25T15:30:46.727Z,9.70
2018-01-25T15:33:57.272Z,9.60
2018-01-25T15:37:07.879Z,9.60
2018-01-25T15:40:18.273Z,9.60
2018-01-25T15:43:29.092Z,9.60
2018-01-25T15:46:39.014Z,9.60
2018-01-25T15:49:48.856Z,9.60
2018-01-25T15:52:58.668Z,9.60
2018-01-25T15:56:09.164Z,9.60
2018-01-25T15:59:19.812Z,9.50
2018-01-25T16:02:29.960Z,9.50
2018-01-25T16:05:39.790Z,9.40
2018-01-25T16:08:49.712Z,9.40
2018-01-25T16:11:59.584Z,9.40
2018-01-25T16:15:09.735Z,9.40
2018-01-25T16:18:19.334Z,9.30
2018-01-25T16:21:29.686Z,9.30
2018-01-25T16:24:39.549Z,9.30
2018-01-25T16:27:49.477Z,9.30
2018-01-25T16:30:59.216Z,9.30
2018-01-25T16:34:09.122Z,9.30
2018-01-25T16:37:19.305Z,9.20
2018-01-25T16:40:29.485Z,9.20
2018-01-25T16:43:39.574Z,9.10
2018-01-25T16:46:50.237Z,9.10
2018-01-25T16:50:00.898Z,9.20
2018-01-25T16:53:11.542Z,9.10
2018-01-25T16:56:22.240Z,9.10
2018-01-25T16:59:33.397Z,9.20
2018-01-25T17:02:43.485Z,9.10
2018-01-25T17:05:54.109Z,9.10
2018-01-25T17:09:04.883Z,9.00
2018-01-25T17:12:15.475Z,9.10
2018-01-25T17:15:26.644Z,9.00
2018-01-25T17:18:37.251Z,9.00
2018-01-25T17:21:47.878Z,8.90
2018-01-25T17:24:57.641Z,9.00
2018-01-25T17:28:07.608Z,8.80
2018-01-25T17:31:18.218Z,8.80
2018-01-25T17:34:28.346Z,8.80
2018-01-25T17:37:38.194Z,8.80
2018-01-25T17:40:48.138Z,8.70
2018-01-25T17:43:58.831Z,8.60
2018-01-25T17:47:09.286Z,8.60
2018-01-25T17:50:19.061Z,8.70
2018-01-25T17:53:29.490Z,8.70
2018-01-25T17:56:40.778Z,8.70
2018-01-25T17:59:51.202Z,8.70
2018-01-25T18:03:01.612Z,8.70
2018-01-25T18:06:11.605Z,8.70
2018-01-25T18:09:22.142Z,8.60
2018-01-25T18:12:32.059Z,8.70
2018-01-25T18:15:42.684Z,8.70
2018-01-25T18:18:53.102Z,8.60
2018-01-25T18:22:03.561Z,8.60
2018-01-25T18:25:13.637Z,8.60
2018-01-25T18:28:23.808Z,8.70
2018-01-25T18:31:33.812Z,8.60
2018-01-25T18:34:43.772Z,8.60
2018-01-25T18:37:54.449Z,8.60
2018-01-25T18:41:04.721Z,8.60
2018-01-25T18:44:14.688Z,8.60
2018-01-25T18:47:24.458Z,8.60
2018-01-25T18:50:34.429Z,8.60
2018-01-25T18:53:45.289Z,8.60
2018-01-25T18:56:55.581Z,8.50
2018-01-25T19:00:05.079Z,8.50
2018-01-25T19:03:15.469Z,8.50
2018-01-25T19:06:25.418Z,8.50
2018-01-25T19:09:35.513Z,8.50
2018-01-25T19:12:46.522Z,8.50
2018-01-25T19:15:57.556Z,8.50
2018-01-25T19:19:08.072Z,8.40
2018-01-25T19:22:18.750Z,8.40
2018-01-25T19:25:29.408Z,8.40
2018-01-25T19:28:39.504Z,8.40
2018-01-25T19:31:49.366Z,8.40
2018-01-25T19:34:59.594Z,8.30
2018-01-25T19:38:10.369Z,8.30
2018-01-25T19:41:21.373Z,8.20
2018-01-25T19:44:31.577Z,8.20
2018-01-25T19:47:41.497Z,8.20
2018-01-25T19:50:52.390Z,8.20
2018-01-25T19:54:02.469Z,8.20
2018-01-25T19:57:12.395Z,8.10
2018-01-25T20:00:22.099Z,8.10
2018-01-25T20:03:31.994Z,8.00
2018-01-25T20:06:41.894Z,8.00
2018-01-25T20:09:51.963Z,8.00
2018-01-25T20:13:01.698Z,8.00
2018-01-25T20:16:11.985Z,7.90
2018-01-25T20:19:23.221Z,7.90
2018-01-25T20:22:33.277Z,7.90
2018-01-25T20:25:43.489Z,7.90
2018-01-25T20:28:53.873Z,7.90
2018-01-25T20:32:03.909Z,7.90
2018-01-25T20:35:14.122Z,7.90
2018-01-25T20:38:24.318Z,7.80
2018-01-25T20:41:34.770Z,7.80
2018-01-25T20:44:44.740Z,7.80
2018-01-25T20:47:54.728Z,7.80
2018-01-25T20:51:04.582Z,7.80
2018-01-25T20:54:14.470Z,7.80
2018-01-25T20:57:24.541Z,7.70
2018-01-25T21:00:34.328Z,7.70
2018-01-25T21:03:44.265Z,7.60
2018-01-25T21:06:54.221Z,7.60
2018-01-25T21:10:03.775Z,7.70
2018-01-25T21:13:13.856Z,7.60
2018-01-25T21:16:23.810Z,7.70
2018-01-25T21:19:33.700Z,7.70
2018-01-25T21:22:43.725Z,7.70
2018-01-25T21:25:53.753Z,7.70
2018-01-25T21:29:03.934Z,7.70
2018-01-25T21:32:14.581Z,7.60
2018-01-25T21:35:25.101Z,7.60
2018-01-25T21:38:35.462Z,7.60
2018-01-25T21:41:46.375Z,7.60
2018-01-25T21:44:56.510Z,7.60
2018-01-25T21:48:06.598Z,7.60
2018-01-25T21:51:16.751Z,7.60
2018-01-25T21:54:27.475Z,7.60
2018-01-25T21:57:37.778Z,7.60
2018-01-25T22:00:48.454Z,7.60
2018-01-25T22:03:58.573Z,7.60
2018-01-25T22:07:08.469Z,7.60
2018-01-25T22:10:18.366Z,7.70
2018-01-25T22:13:28.612Z,7.60
2018-01-25T22:16:38.836Z,7.60
2018-01-25T22:19:49.707Z,7.60
2018-01-25T22:22:59.719Z,7.60
2018-01-25T22:26:09.698Z,7.50
2018-01-25T22:29:19.544Z,7.60
2018-01-25T22:32:29.476Z,7.50
2018-01-25T22:35:39.538Z,7.50
2018-01-25T22:38:50.261Z,7.50
2018-01-25T22:42:00.635Z,7.50
2018-01-25T22:45:10.759Z,7.50
2018-01-25T22:48:20.791Z,7.50
2018-01-25T22:51:30.781Z,7.50
2018-01-25T22:54:40.701Z,7.50
2018-01-25T22:57:50.729Z,7.50
2018-01-25T23:01:01.324Z,7.50
2018-01-25T23:04:12.030Z,7.50
2018-01-25T23:07:22.438Z,7.50
2018-01-25T23:10:32.414Z,7.50
2018-01-25T23:13:42.233Z,7.50
2018-01-25T23:16:52.152Z,7.50
2018-01-25T23:20:02.006Z,7.50
2018-01-25T23:23:11.944Z,7.50
2018-01-25T23:26:21.835Z,7.50
2018-01-25T23:29:33.367Z,7.40
2018-01-25T23:32:43.423Z,7.40
2018-01-25T23:35:53.459Z,7.40
2018-01-25T23:39:03.026Z,7.40
2018-01-25T23:42:12.968Z,7.40
2018-01-25T23:45:22.817Z,7.50
2018-01-25T23:48:32.827Z,7.40
2018-01-25T23:51:43.238Z,7.40
2018-01-25T23:54:53.583Z,7.40
2018-01-25T23:58:03.654Z,7.40
